sensor_id;sensor_type;location;lat;lon;timestamp;P1;durP1;ratioP1;P2;durP2;ratioP2
1467;SDS011;727;48.892;9.544;2022-12-10T00:00:44;47.60;;;32.05;;
1467;SDS011;727;48.892;9.544;2022-12-10T00:03:12;50.75;;;32.63;;
1467;SDS011;727;48.892;9.544;2022-12-10T00:05:40;45.03;;;31.35;;
1467;SDS011;727;48.892;9.544;2022-12-10T00:08:06;47.75;;;29.48;;
1467;SDS011;727;48.892;9.544;2022-12-10T00:10:33;44.03;;;30.20;;
1467;SDS011;727;48.892;9.544;2022-12-10T00:13:00;46.53;;;28.77;;
1467;SDS011;727;48.892;9.544;2022-12-10T00:15:26;52.10;;;31.38;;
1467;SDS011;727;48.892;9.544;2022-12-10T00:17:53;41.08;;;29.27;;
1467;SDS011;727;48.892;9.544;2022-12-10T00:20:20;46.35;;;30.23;;
1467;SDS011;727;48.892;9.544;2022-12-10T00:22:48;43.80;;;28.02;;
1467;SDS011;727;48.892;9.544;2022-12-10T00:25:15;44.15;;;29.02;;
1467;SDS011;727;48.892;9.544;2022-12-10T00:27:42;36.15;;;24.90;;
1467;SDS011;727;48.892;9.544;2022-12-10T00:30:10;35.33;;;25.70;;
1467;SDS011;727;48.892;9.544;2022-12-10T00:32:37;34.95;;;25.40;;
1467;SDS011;727;48.892;9.544;2022-12-10T00:35:04;41.72;;;27.02;;
1467;SDS011;727;48.892;9.544;2022-12-10T00:37:32;36.72;;;26.00;;
1467;SDS011;727;48.892;9.544;2022-12-10T00:40:00;37.70;;;25.38;;
1467;SDS011;727;48.892;9.544;2022-12-10T00:42:27;36.30;;;26.48;;
1467;SDS011;727;48.892;9.544;2022-12-10T00:44:54;37.03;;;24.48;;
1467;SDS011;727;48.892;9.544;2022-12-10T00:47:20;35.65;;;24.17;;
1467;SDS011;727;48.892;9.544;2022-12-10T00:49:47;40.85;;;26.10;;
1467;SDS011;727;48.892;9.544;2022-12-10T00:52:14;34.75;;;22.63;;
1467;SDS011;727;48.892;9.544;2022-12-10T00:54:41;41.88;;;24.83;;
1467;SDS011;727;48.892;9.544;2022-12-10T00:57:09;42.97;;;28.85;;
1467;SDS011;727;48.892;9.544;2022-12-10T00:59:36;37.63;;;23.77;;
1467;SDS011;727;48.892;9.544;2022-12-10T01:02:02;34.20;;;24.08;;
1467;SDS011;727;48.892;9.544;2022-12-10T01:04:29;35.45;;;25.25;;
1467;SDS011;727;48.892;9.544;2022-12-10T01:06:56;33.97;;;23.88;;
1467;SDS011;727;48.892;9.544;2022-12-10T01:09:25;32.75;;;22.67;;
1467;SDS011;727;48.892;9.544;2022-12-10T01:11:53;30.55;;;21.83;;
1467;SDS011;727;48.892;9.544;2022-12-10T01:14:23;32.42;;;23.42;;
1467;SDS011;727;48.892;9.544;2022-12-10T01:16:53;30.73;;;21.52;;
1467;SDS011;727;48.892;9.544;2022-12-10T01:19:21;28.15;;;21.10;;
1467;SDS011;727;48.892;9.544;2022-12-10T01:21:49;40.08;;;23.00;;
1467;SDS011;727;48.892;9.544;2022-12-10T01:24:16;37.55;;;25.25;;
1467;SDS011;727;48.892;9.544;2022-12-10T01:26:43;34.65;;;22.38;;
1467;SDS011;727;48.892;9.544;2022-12-10T01:29:10;29.98;;;23.52;;
1467;SDS011;727;48.892;9.544;2022-12-10T01:31:39;32.15;;;22.30;;
1467;SDS011;727;48.892;9.544;2022-12-10T01:34:07;30.38;;;22.00;;
1467;SDS011;727;48.892;9.544;2022-12-10T01:36:39;27.02;;;20.13;;
1467;SDS011;727;48.892;9.544;2022-12-10T01:39:08;31.92;;;22.05;;
1467;SDS011;727;48.892;9.544;2022-12-10T01:41:37;30.13;;;21.48;;
1467;SDS011;727;48.892;9.544;2022-12-10T01:47:07;32.40;;;22.30;;
1467;SDS011;727;48.892;9.544;2022-12-10T01:49:34;27.92;;;20.55;;
1467;SDS011;727;48.892;9.544;2022-12-10T01:52:03;30.80;;;22.25;;
1467;SDS011;727;48.892;9.544;2022-12-10T01:54:33;30.95;;;22.98;;
1467;SDS011;727;48.892;9.544;2022-12-10T01:57:03;30.60;;;21.48;;
1467;SDS011;727;48.892;9.544;2022-12-10T01:59:32;30.65;;;22.05;;
1467;SDS011;727;48.892;9.544;2022-12-10T02:02:01;31.05;;;21.75;;
1467;SDS011;727;48.892;9.544;2022-12-10T02:04:37;27.65;;;20.30;;
1467;SDS011;727;48.892;9.544;2022-12-10T02:07:13;30.75;;;21.60;;
1467;SDS011;727;48.892;9.544;2022-12-10T02:09:47;28.65;;;23.45;;
1467;SDS011;727;48.892;9.544;2022-12-10T02:12:22;30.92;;;19.80;;
1467;SDS011;727;48.892;9.544;2022-12-10T02:14:53;30.98;;;20.67;;
1467;SDS011;727;48.892;9.544;2022-12-10T02:17:24;26.35;;;19.77;;
1467;SDS011;727;48.892;9.544;2022-12-10T02:19:59;27.55;;;19.98;;
1467;SDS011;727;48.892;9.544;2022-12-10T02:22:30;31.83;;;22.85;;
1467;SDS011;727;48.892;9.544;2022-12-10T02:25:00;31.33;;;23.02;;
1467;SDS011;727;48.892;9.544;2022-12-10T02:27:31;38.97;;;24.35;;
1467;SDS011;727;48.892;9.544;2022-12-10T02:30:05;37.28;;;23.80;;
1467;SDS011;727;48.892;9.544;2022-12-10T02:32:33;35.10;;;22.80;;
1467;SDS011;727;48.892;9.544;2022-12-10T02:35:03;35.55;;;24.40;;
1467;SDS011;727;48.892;9.544;2022-12-10T02:37:36;27.15;;;21.23;;
1467;SDS011;727;48.892;9.544;2022-12-10T02:40:07;35.28;;;22.83;;
1467;SDS011;727;48.892;9.544;2022-12-10T02:42:38;28.60;;;21.00;;
1467;SDS011;727;48.892;9.544;2022-12-10T02:45:10;27.85;;;20.80;;
1467;SDS011;727;48.892;9.544;2022-12-10T02:47:37;30.60;;;21.45;;
1467;SDS011;727;48.892;9.544;2022-12-10T02:50:06;27.50;;;20.63;;
1467;SDS011;727;48.892;9.544;2022-12-10T02:52:35;31.17;;;20.92;;
1467;SDS011;727;48.892;9.544;2022-12-10T02:55:02;33.78;;;21.67;;
1467;SDS011;727;48.892;9.544;2022-12-10T02:57:31;31.40;;;20.13;;
1467;SDS011;727;48.892;9.544;2022-12-10T03:00:04;28.33;;;21.08;;
1467;SDS011;727;48.892;9.544;2022-12-10T03:05:47;29.88;;;19.40;;
1467;SDS011;727;48.892;9.544;2022-12-10T03:08:22;26.30;;;19.80;;
1467;SDS011;727;48.892;9.544;2022-12-10T03:10:55;29.75;;;21.70;;
1467;SDS011;727;48.892;9.544;2022-12-10T03:13:27;31.20;;;21.40;;
1467;SDS011;727;48.892;9.544;2022-12-10T03:15:59;26.42;;;20.60;;
1467;SDS011;727;48.892;9.544;2022-12-10T03:18:26;31.48;;;24.23;;
1467;SDS011;727;48.892;9.544;2022-12-10T03:20:55;36.80;;;23.30;;
1467;SDS011;727;48.892;9.544;2022-12-10T03:23:28;34.35;;;22.60;;
1467;SDS011;727;48.892;9.544;2022-12-10T03:25:56;29.75;;;21.67;;
1467;SDS011;727;48.892;9.544;2022-12-10T03:28:23;33.95;;;23.27;;
1467;SDS011;727;48.892;9.544;2022-12-10T03:30:52;32.78;;;24.55;;
1467;SDS011;727;48.892;9.544;2022-12-10T03:33:22;32.08;;;23.02;;
1467;SDS011;727;48.892;9.544;2022-12-10T03:35:49;33.60;;;25.35;;
1467;SDS011;727;48.892;9.544;2022-12-10T03:38:16;36.50;;;24.90;;
1467;SDS011;727;48.892;9.544;2022-12-10T03:40:43;35.25;;;22.55;;
1467;SDS011;727;48.892;9.544;2022-12-10T03:43:11;30.77;;;22.27;;
1467;SDS011;727;48.892;9.544;2022-12-10T03:45:39;32.85;;;24.65;;
1467;SDS011;727;48.892;9.544;2022-12-10T03:48:06;31.80;;;21.80;;
1467;SDS011;727;48.892;9.544;2022-12-10T03:50:34;31.48;;;22.35;;
1467;SDS011;727;48.892;9.544;2022-12-10T03:53:00;28.77;;;20.55;;
1467;SDS011;727;48.892;9.544;2022-12-10T03:55:27;31.45;;;21.85;;
1467;SDS011;727;48.892;9.544;2022-12-10T03:57:54;28.80;;;21.15;;
1467;SDS011;727;48.892;9.544;2022-12-10T04:00:21;33.67;;;21.95;;
1467;SDS011;727;48.892;9.544;2022-12-10T04:02:47;29.92;;;21.40;;
1467;SDS011;727;48.892;9.544;2022-12-10T04:05:14;30.77;;;21.55;;
1467;SDS011;727;48.892;9.544;2022-12-10T04:07:43;32.55;;;20.35;;
1467;SDS011;727;48.892;9.544;2022-12-10T04:10:09;27.58;;;19.77;;
1467;SDS011;727;48.892;9.544;2022-12-10T04:12:37;33.17;;;23.23;;
1467;SDS011;727;48.892;9.544;2022-12-10T04:15:04;35.65;;;20.95;;
1467;SDS011;727;48.892;9.544;2022-12-10T04:17:50;27.73;;;19.25;;
1467;SDS011;727;48.892;9.544;2022-12-10T04:20:17;29.98;;;20.30;;
1467;SDS011;727;48.892;9.544;2022-12-10T04:23:03;35.03;;;23.38;;
1467;SDS011;727;48.892;9.544;2022-12-10T04:25:47;32.13;;;23.13;;
1467;SDS011;727;48.892;9.544;2022-12-10T04:28:31;32.83;;;22.48;;
1467;SDS011;727;48.892;9.544;2022-12-10T04:30:58;32.78;;;23.13;;
1467;SDS011;727;48.892;9.544;2022-12-10T04:33:25;32.30;;;23.30;;
1467;SDS011;727;48.892;9.544;2022-12-10T04:35:51;36.03;;;23.58;;
1467;SDS011;727;48.892;9.544;2022-12-10T04:38:19;33.03;;;23.48;;
1467;SDS011;727;48.892;9.544;2022-12-10T04:40:46;31.42;;;21.45;;
1467;SDS011;727;48.892;9.544;2022-12-10T04:43:13;35.53;;;23.30;;
1467;SDS011;727;48.892;9.544;2022-12-10T04:45:39;34.55;;;23.30;;
1467;SDS011;727;48.892;9.544;2022-12-10T04:48:06;30.52;;;21.70;;
1467;SDS011;727;48.892;9.544;2022-12-10T04:50:33;28.75;;;21.90;;
1467;SDS011;727;48.892;9.544;2022-12-10T04:52:59;31.75;;;22.77;;
1467;SDS011;727;48.892;9.544;2022-12-10T04:55:28;30.90;;;23.85;;
1467;SDS011;727;48.892;9.544;2022-12-10T04:57:54;33.03;;;23.58;;
1467;SDS011;727;48.892;9.544;2022-12-10T05:00:22;32.80;;;21.67;;
1467;SDS011;727;48.892;9.544;2022-12-10T05:02:49;35.42;;;23.70;;
1467;SDS011;727;48.892;9.544;2022-12-10T05:05:16;31.45;;;21.77;;
1467;SDS011;727;48.892;9.544;2022-12-10T05:07:43;32.78;;;23.00;;
1467;SDS011;727;48.892;9.544;2022-12-10T05:10:10;30.02;;;21.80;;
1467;SDS011;727;48.892;9.544;2022-12-10T05:12:38;31.23;;;22.80;;
1467;SDS011;727;48.892;9.544;2022-12-10T05:15:05;33.22;;;24.80;;
1467;SDS011;727;48.892;9.544;2022-12-10T05:17:33;29.10;;;22.30;;
1467;SDS011;727;48.892;9.544;2022-12-10T05:19:59;28.52;;;21.42;;
1467;SDS011;727;48.892;9.544;2022-12-10T05:22:26;38.03;;;22.60;;
1467;SDS011;727;48.892;9.544;2022-12-10T05:25:10;35.30;;;24.83;;
1467;SDS011;727;48.892;9.544;2022-12-10T05:27:38;36.75;;;26.90;;
1467;SDS011;727;48.892;9.544;2022-12-10T05:30:05;33.22;;;23.25;;
1467;SDS011;727;48.892;9.544;2022-12-10T05:32:34;35.90;;;25.45;;
1467;SDS011;727;48.892;9.544;2022-12-10T05:35:01;30.83;;;24.00;;
1467;SDS011;727;48.892;9.544;2022-12-10T05:37:28;30.25;;;22.17;;
1467;SDS011;727;48.892;9.544;2022-12-10T05:39:55;31.48;;;22.20;;
1467;SDS011;727;48.892;9.544;2022-12-10T05:42:21;30.42;;;21.52;;
1467;SDS011;727;48.892;9.544;2022-12-10T05:44:49;34.97;;;23.35;;
1467;SDS011;727;48.892;9.544;2022-12-10T05:47:16;44.40;;;25.30;;
1467;SDS011;727;48.892;9.544;2022-12-10T05:49:43;34.38;;;23.95;;
1467;SDS011;727;48.892;9.544;2022-12-10T05:52:09;40.78;;;26.83;;
1467;SDS011;727;48.892;9.544;2022-12-10T05:54:36;34.80;;;25.00;;
1467;SDS011;727;48.892;9.544;2022-12-10T05:57:03;39.42;;;25.50;;
1467;SDS011;727;48.892;9.544;2022-12-10T05:59:29;43.70;;;25.77;;
1467;SDS011;727;48.892;9.544;2022-12-10T06:01:57;29.73;;;23.02;;
1467;SDS011;727;48.892;9.544;2022-12-10T06:04:24;36.10;;;23.63;;
1467;SDS011;727;48.892;9.544;2022-12-10T06:06:51;38.63;;;22.05;;
1467;SDS011;727;48.892;9.544;2022-12-10T06:09:17;31.67;;;22.42;;
1467;SDS011;727;48.892;9.544;2022-12-10T06:11:45;36.53;;;23.13;;
1467;SDS011;727;48.892;9.544;2022-12-10T06:14:12;32.13;;;23.90;;
1467;SDS011;727;48.892;9.544;2022-12-10T06:16:39;38.38;;;23.05;;
1467;SDS011;727;48.892;9.544;2022-12-10T06:19:08;34.72;;;23.02;;
1467;SDS011;727;48.892;9.544;2022-12-10T06:21:34;37.95;;;22.63;;
1467;SDS011;727;48.892;9.544;2022-12-10T06:24:02;30.83;;;22.95;;
1467;SDS011;727;48.892;9.544;2022-12-10T06:26:28;34.97;;;23.55;;
1467;SDS011;727;48.892;9.544;2022-12-10T06:28:55;35.92;;;23.00;;
1467;SDS011;727;48.892;9.544;2022-12-10T06:31:22;37.78;;;24.27;;
1467;SDS011;727;48.892;9.544;2022-12-10T06:33:50;34.80;;;24.70;;
1467;SDS011;727;48.892;9.544;2022-12-10T06:36:19;29.75;;;23.08;;
1467;SDS011;727;48.892;9.544;2022-12-10T06:38:46;37.95;;;24.25;;
1467;SDS011;727;48.892;9.544;2022-12-10T06:41:13;32.33;;;22.65;;
1467;SDS011;727;48.892;9.544;2022-12-10T06:43:41;32.60;;;24.40;;
1467;SDS011;727;48.892;9.544;2022-12-10T06:46:09;35.38;;;24.73;;
1467;SDS011;727;48.892;9.544;2022-12-10T06:48:39;35.40;;;23.05;;
1467;SDS011;727;48.892;9.544;2022-12-10T06:51:06;34.05;;;23.83;;
1467;SDS011;727;48.892;9.544;2022-12-10T06:53:35;34.20;;;24.02;;
1467;SDS011;727;48.892;9.544;2022-12-10T06:56:03;33.25;;;21.95;;
1467;SDS011;727;48.892;9.544;2022-12-10T06:58:31;32.67;;;22.77;;
1467;SDS011;727;48.892;9.544;2022-12-10T07:01:01;31.08;;;24.40;;
1467;SDS011;727;48.892;9.544;2022-12-10T07:03:29;33.15;;;24.10;;
1467;SDS011;727;48.892;9.544;2022-12-10T07:05:56;32.20;;;21.80;;
1467;SDS011;727;48.892;9.544;2022-12-10T07:08:23;38.08;;;23.60;;
1467;SDS011;727;48.892;9.544;2022-12-10T07:10:51;29.20;;;21.15;;
1467;SDS011;727;48.892;9.544;2022-12-10T07:13:18;33.80;;;22.73;;
1467;SDS011;727;48.892;9.544;2022-12-10T07:15:45;30.05;;;21.70;;
1467;SDS011;727;48.892;9.544;2022-12-10T07:18:12;30.60;;;23.23;;
1467;SDS011;727;48.892;9.544;2022-12-10T07:20:38;38.65;;;26.35;;
1467;SDS011;727;48.892;9.544;2022-12-10T07:23:05;45.38;;;28.15;;
1467;SDS011;727;48.892;9.544;2022-12-10T07:25:32;46.83;;;30.08;;
1467;SDS011;727;48.892;9.544;2022-12-10T07:28:00;39.00;;;28.58;;
1467;SDS011;727;48.892;9.544;2022-12-10T07:30:27;45.30;;;29.45;;
1467;SDS011;727;48.892;9.544;2022-12-10T07:32:54;52.10;;;31.65;;
1467;SDS011;727;48.892;9.544;2022-12-10T07:35:20;41.05;;;29.90;;
1467;SDS011;727;48.892;9.544;2022-12-10T07:37:47;37.30;;;23.33;;
1467;SDS011;727;48.892;9.544;2022-12-10T07:40:14;30.52;;;23.33;;
1467;SDS011;727;48.892;9.544;2022-12-10T07:42:41;37.28;;;24.55;;
1467;SDS011;727;48.892;9.544;2022-12-10T07:45:09;36.10;;;24.75;;
1467;SDS011;727;48.892;9.544;2022-12-10T07:47:36;35.78;;;24.95;;
1467;SDS011;727;48.892;9.544;2022-12-10T07:50:04;32.75;;;24.13;;
1467;SDS011;727;48.892;9.544;2022-12-10T07:52:31;41.72;;;25.05;;
1467;SDS011;727;48.892;9.544;2022-12-10T07:54:58;42.42;;;26.77;;
1467;SDS011;727;48.892;9.544;2022-12-10T07:57:25;44.45;;;27.75;;
1467;SDS011;727;48.892;9.544;2022-12-10T07:59:51;38.38;;;27.38;;
1467;SDS011;727;48.892;9.544;2022-12-10T08:02:19;38.00;;;26.92;;
1467;SDS011;727;48.892;9.544;2022-12-10T08:04:46;41.05;;;26.70;;
1467;SDS011;727;48.892;9.544;2022-12-10T08:07:13;38.33;;;27.70;;
1467;SDS011;727;48.892;9.544;2022-12-10T08:09:39;38.75;;;27.60;;
1467;SDS011;727;48.892;9.544;2022-12-10T08:12:06;41.13;;;25.90;;
1467;SDS011;727;48.892;9.544;2022-12-10T08:14:33;37.97;;;26.02;;
1467;SDS011;727;48.892;9.544;2022-12-10T08:17:00;38.25;;;26.00;;
1467;SDS011;727;48.892;9.544;2022-12-10T08:19:28;34.72;;;26.20;;
1467;SDS011;727;48.892;9.544;2022-12-10T08:21:55;36.28;;;24.88;;
1467;SDS011;727;48.892;9.544;2022-12-10T08:24:22;31.08;;;23.30;;
1467;SDS011;727;48.892;9.544;2022-12-10T08:26:49;35.83;;;24.73;;
1467;SDS011;727;48.892;9.544;2022-12-10T08:29:16;35.25;;;23.13;;
1467;SDS011;727;48.892;9.544;2022-12-10T08:31:42;42.65;;;28.73;;
1467;SDS011;727;48.892;9.544;2022-12-10T08:34:10;39.22;;;24.55;;
1467;SDS011;727;48.892;9.544;2022-12-10T08:36:40;54.85;;;28.83;;
1467;SDS011;727;48.892;9.544;2022-12-10T08:39:07;66.38;;;37.97;;
1467;SDS011;727;48.892;9.544;2022-12-10T08:41:35;68.18;;;40.53;;
1467;SDS011;727;48.892;9.544;2022-12-10T08:44:02;46.50;;;28.63;;
1467;SDS011;727;48.892;9.544;2022-12-10T08:46:29;39.55;;;28.02;;
1467;SDS011;727;48.892;9.544;2022-12-10T08:48:56;47.58;;;30.88;;
1467;SDS011;727;48.892;9.544;2022-12-10T08:51:23;38.67;;;25.52;;
1467;SDS011;727;48.892;9.544;2022-12-10T08:53:51;37.50;;;25.63;;
1467;SDS011;727;48.892;9.544;2022-12-10T08:56:18;45.05;;;27.75;;
1467;SDS011;727;48.892;9.544;2022-12-10T08:58:45;40.38;;;27.55;;
1467;SDS011;727;48.892;9.544;2022-12-10T09:01:13;32.05;;;23.17;;
1467;SDS011;727;48.892;9.544;2022-12-10T09:03:40;42.55;;;26.25;;
1467;SDS011;727;48.892;9.544;2022-12-10T09:06:08;35.13;;;23.90;;
1467;SDS011;727;48.892;9.544;2022-12-10T09:08:36;47.53;;;27.63;;
1467;SDS011;727;48.892;9.544;2022-12-10T09:11:05;33.72;;;23.27;;
1467;SDS011;727;48.892;9.544;2022-12-10T09:13:33;29.13;;;22.10;;
1467;SDS011;727;48.892;9.544;2022-12-10T09:15:59;33.72;;;23.48;;
1467;SDS011;727;48.892;9.544;2022-12-10T09:18:27;31.30;;;23.27;;
1467;SDS011;727;48.892;9.544;2022-12-10T09:20:53;31.08;;;21.58;;
1467;SDS011;727;48.892;9.544;2022-12-10T09:23:20;31.17;;;21.85;;
1467;SDS011;727;48.892;9.544;2022-12-10T09:25:49;30.00;;;21.42;;
1467;SDS011;727;48.892;9.544;2022-12-10T09:28:17;35.28;;;23.15;;
1467;SDS011;727;48.892;9.544;2022-12-10T09:30:44;30.30;;;19.65;;
1467;SDS011;727;48.892;9.544;2022-12-10T09:33:10;33.30;;;20.73;;
1467;SDS011;727;48.892;9.544;2022-12-10T09:35:39;32.85;;;22.92;;
1467;SDS011;727;48.892;9.544;2022-12-10T09:38:07;30.85;;;21.40;;
1467;SDS011;727;48.892;9.544;2022-12-10T09:40:35;35.03;;;22.33;;
1467;SDS011;727;48.892;9.544;2022-12-10T09:43:06;28.65;;;21.75;;
1467;SDS011;727;48.892;9.544;2022-12-10T09:45:44;36.80;;;23.77;;
1467;SDS011;727;48.892;9.544;2022-12-10T09:48:19;34.13;;;24.88;;
1467;SDS011;727;48.892;9.544;2022-12-10T09:50:53;28.17;;;20.55;;
1467;SDS011;727;48.892;9.544;2022-12-10T09:53:26;24.42;;;18.60;;
1467;SDS011;727;48.892;9.544;2022-12-10T09:55:54;32.90;;;24.10;;
1467;SDS011;727;48.892;9.544;2022-12-10T09:58:22;25.88;;;18.92;;
1467;SDS011;727;48.892;9.544;2022-12-10T10:00:54;25.15;;;19.95;;
1467;SDS011;727;48.892;9.544;2022-12-10T10:03:23;24.05;;;17.90;;
1467;SDS011;727;48.892;9.544;2022-12-10T10:05:51;21.33;;;18.00;;
1467;SDS011;727;48.892;9.544;2022-12-10T10:08:22;27.40;;;17.92;;
1467;SDS011;727;48.892;9.544;2022-12-10T10:10:53;26.90;;;19.52;;
1467;SDS011;727;48.892;9.544;2022-12-10T10:13:25;23.25;;;17.73;;
1467;SDS011;727;48.892;9.544;2022-12-10T10:16:18;26.45;;;17.30;;
1467;SDS011;727;48.892;9.544;2022-12-10T10:18:50;26.95;;;17.23;;
1467;SDS011;727;48.892;9.544;2022-12-10T10:21:25;30.63;;;18.17;;
1467;SDS011;727;48.892;9.544;2022-12-10T10:23:54;25.92;;;17.77;;
1467;SDS011;727;48.892;9.544;2022-12-10T10:28:58;25.42;;;17.48;;
1467;SDS011;727;48.892;9.544;2022-12-10T10:31:30;24.83;;;16.77;;
1467;SDS011;727;48.892;9.544;2022-12-10T10:34:00;26.75;;;19.83;;
1467;SDS011;727;48.892;9.544;2022-12-10T10:36:32;29.02;;;20.77;;
1467;SDS011;727;48.892;9.544;2022-12-10T10:39:07;28.45;;;18.80;;
1467;SDS011;727;48.892;9.544;2022-12-10T10:41:37;32.03;;;20.67;;
1467;SDS011;727;48.892;9.544;2022-12-10T10:44:11;31.33;;;19.67;;
1467;SDS011;727;48.892;9.544;2022-12-10T10:46:42;24.90;;;18.98;;
1467;SDS011;727;48.892;9.544;2022-12-10T10:49:19;26.98;;;18.35;;
1467;SDS011;727;48.892;9.544;2022-12-10T10:51:50;30.67;;;22.27;;
1467;SDS011;727;48.892;9.544;2022-12-10T10:54:30;28.15;;;18.27;;
1467;SDS011;727;48.892;9.544;2022-12-10T10:57:03;24.17;;;18.10;;
1467;SDS011;727;48.892;9.544;2022-12-10T10:59:35;29.23;;;18.83;;
1467;SDS011;727;48.892;9.544;2022-12-10T11:02:15;24.17;;;16.35;;
1467;SDS011;727;48.892;9.544;2022-12-10T11:04:46;30.10;;;18.23;;
1467;SDS011;727;48.892;9.544;2022-12-10T11:07:19;28.63;;;19.30;;
1467;SDS011;727;48.892;9.544;2022-12-10T11:09:48;24.98;;;18.00;;
1467;SDS011;727;48.892;9.544;2022-12-10T11:12:27;29.00;;;18.02;;
1467;SDS011;727;48.892;9.544;2022-12-10T11:14:58;22.67;;;15.23;;
1467;SDS011;727;48.892;9.544;2022-12-10T11:17:49;26.27;;;15.68;;
1467;SDS011;727;48.892;9.544;2022-12-10T11:20:19;23.63;;;15.30;;
1467;SDS011;727;48.892;9.544;2022-12-10T11:22:49;19.98;;;14.88;;
1467;SDS011;727;48.892;9.544;2022-12-10T11:25:20;19.85;;;15.02;;
1467;SDS011;727;48.892;9.544;2022-12-10T11:27:57;22.10;;;15.70;;
1467;SDS011;727;48.892;9.544;2022-12-10T11:30:29;22.65;;;17.75;;
1467;SDS011;727;48.892;9.544;2022-12-10T11:33:13;24.65;;;18.70;;
1467;SDS011;727;48.892;9.544;2022-12-10T11:35:49;24.95;;;17.60;;
1467;SDS011;727;48.892;9.544;2022-12-10T11:38:21;24.60;;;16.23;;
1467;SDS011;727;48.892;9.544;2022-12-10T11:40:54;21.38;;;16.23;;
1467;SDS011;727;48.892;9.544;2022-12-10T11:43:35;28.90;;;18.40;;
1467;SDS011;727;48.892;9.544;2022-12-10T11:46:16;49.75;;;27.30;;
1467;SDS011;727;48.892;9.544;2022-12-10T11:48:58;21.88;;;15.55;;
1467;SDS011;727;48.892;9.544;2022-12-10T11:51:40;19.27;;;15.93;;
1467;SDS011;727;48.892;9.544;2022-12-10T11:54:14;22.90;;;16.45;;
1467;SDS011;727;48.892;9.544;2022-12-10T11:56:55;24.95;;;17.13;;
1467;SDS011;727;48.892;9.544;2022-12-10T11:59:28;19.55;;;16.65;;
1467;SDS011;727;48.892;9.544;2022-12-10T12:05:06;23.70;;;14.43;;
1467;SDS011;727;48.892;9.544;2022-12-10T12:07:41;29.15;;;18.70;;
1467;SDS011;727;48.892;9.544;2022-12-10T12:10:23;30.85;;;19.73;;
1467;SDS011;727;48.892;9.544;2022-12-10T12:13:05;23.08;;;16.88;;
1467;SDS011;727;48.892;9.544;2022-12-10T12:15:38;25.25;;;16.40;;
1467;SDS011;727;48.892;9.544;2022-12-10T12:18:11;17.35;;;13.23;;
1467;SDS011;727;48.892;9.544;2022-12-10T12:20:46;23.33;;;15.05;;
1467;SDS011;727;48.892;9.544;2022-12-10T12:23:17;35.20;;;16.83;;
1467;SDS011;727;48.892;9.544;2022-12-10T12:25:48;22.10;;;18.33;;
1467;SDS011;727;48.892;9.544;2022-12-10T12:28:21;25.17;;;17.25;;
1467;SDS011;727;48.892;9.544;2022-12-10T12:30:53;22.45;;;17.00;;
1467;SDS011;727;48.892;9.544;2022-12-10T12:33:28;19.38;;;15.70;;
1467;SDS011;727;48.892;9.544;2022-12-10T12:36:04;28.60;;;17.45;;
1467;SDS011;727;48.892;9.544;2022-12-10T12:38:37;28.23;;;18.55;;
1467;SDS011;727;48.892;9.544;2022-12-10T12:41:10;24.75;;;17.70;;
1467;SDS011;727;48.892;9.544;2022-12-10T12:43:43;34.25;;;20.48;;
1467;SDS011;727;48.892;9.544;2022-12-10T12:46:16;28.30;;;17.92;;
1467;SDS011;727;48.892;9.544;2022-12-10T12:48:48;20.75;;;17.63;;
1467;SDS011;727;48.892;9.544;2022-12-10T12:51:22;25.52;;;17.40;;
1467;SDS011;727;48.892;9.544;2022-12-10T12:53:52;27.58;;;18.45;;
1467;SDS011;727;48.892;9.544;2022-12-10T12:56:21;24.52;;;17.52;;
1467;SDS011;727;48.892;9.544;2022-12-10T12:58:58;23.95;;;17.50;;
1467;SDS011;727;48.892;9.544;2022-12-10T13:01:32;27.55;;;20.10;;
1467;SDS011;727;48.892;9.544;2022-12-10T13:04:04;28.88;;;20.48;;
1467;SDS011;727;48.892;9.544;2022-12-10T13:06:33;25.88;;;18.95;;
1467;SDS011;727;48.892;9.544;2022-12-10T13:09:23;25.88;;;16.30;;
1467;SDS011;727;48.892;9.544;2022-12-10T13:14:56;22.85;;;16.20;;
1467;SDS011;727;48.892;9.544;2022-12-10T13:17:31;22.20;;;17.10;;
1467;SDS011;727;48.892;9.544;2022-12-10T13:22:56;23.25;;;17.23;;
1467;SDS011;727;48.892;9.544;2022-12-10T13:25:38;32.17;;;19.13;;
1467;SDS011;727;48.892;9.544;2022-12-10T13:28:22;22.10;;;16.60;;
1467;SDS011;727;48.892;9.544;2022-12-10T13:34:04;35.38;;;18.98;;
1467;SDS011;727;48.892;9.544;2022-12-10T13:37:14;25.20;;;16.65;;
1467;SDS011;727;48.892;9.544;2022-12-10T13:40:18;29.75;;;16.25;;
1467;SDS011;727;48.892;9.544;2022-12-10T13:42:56;23.75;;;15.70;;
1467;SDS011;727;48.892;9.544;2022-12-10T13:45:41;26.33;;;17.80;;
1467;SDS011;727;48.892;9.544;2022-12-10T13:51:12;22.25;;;15.68;;
1467;SDS011;727;48.892;9.544;2022-12-10T13:53:51;21.77;;;16.63;;
1467;SDS011;727;48.892;9.544;2022-12-10T13:56:35;27.90;;;16.83;;
1467;SDS011;727;48.892;9.544;2022-12-10T13:59:13;24.58;;;16.05;;
1467;SDS011;727;48.892;9.544;2022-12-10T14:01:51;21.90;;;14.82;;
1467;SDS011;727;48.892;9.544;2022-12-10T14:04:49;21.20;;;15.23;;
1467;SDS011;727;48.892;9.544;2022-12-10T14:07:42;25.50;;;15.68;;
1467;SDS011;727;48.892;9.544;2022-12-10T14:10:14;22.15;;;15.98;;
1467;SDS011;727;48.892;9.544;2022-12-10T14:12:44;24.30;;;14.93;;
1467;SDS011;727;48.892;9.544;2022-12-10T14:15:14;20.08;;;14.90;;
1467;SDS011;727;48.892;9.544;2022-12-10T14:17:46;23.85;;;17.80;;
1467;SDS011;727;48.892;9.544;2022-12-10T14:20:16;26.75;;;17.42;;
1467;SDS011;727;48.892;9.544;2022-12-10T14:22:45;25.00;;;16.55;;
1467;SDS011;727;48.892;9.544;2022-12-10T14:25:15;21.65;;;15.45;;
1467;SDS011;727;48.892;9.544;2022-12-10T14:27:45;28.27;;;17.88;;
1467;SDS011;727;48.892;9.544;2022-12-10T14:30:18;28.83;;;18.98;;
1467;SDS011;727;48.892;9.544;2022-12-10T14:32:47;24.05;;;16.98;;
1467;SDS011;727;48.892;9.544;2022-12-10T14:35:16;27.13;;;19.35;;
1467;SDS011;727;48.892;9.544;2022-12-10T14:37:45;30.42;;;19.00;;
1467;SDS011;727;48.892;9.544;2022-12-10T14:40:17;23.00;;;16.30;;
1467;SDS011;727;48.892;9.544;2022-12-10T14:42:49;27.85;;;19.02;;
1467;SDS011;727;48.892;9.544;2022-12-10T14:45:16;33.90;;;21.15;;
1467;SDS011;727;48.892;9.544;2022-12-10T14:47:44;28.90;;;18.73;;
1467;SDS011;727;48.892;9.544;2022-12-10T14:50:14;35.08;;;19.77;;
1467;SDS011;727;48.892;9.544;2022-12-10T14:52:43;26.05;;;19.20;;
1467;SDS011;727;48.892;9.544;2022-12-10T14:55:46;27.45;;;16.48;;
1467;SDS011;727;48.892;9.544;2022-12-10T14:58:18;24.80;;;18.13;;
1467;SDS011;727;48.892;9.544;2022-12-10T15:00:52;25.10;;;17.88;;
1467;SDS011;727;48.892;9.544;2022-12-10T15:03:22;24.38;;;16.70;;
1467;SDS011;727;48.892;9.544;2022-12-10T15:05:54;20.98;;;17.00;;
1467;SDS011;727;48.892;9.544;2022-12-10T15:08:22;26.60;;;17.67;;
1467;SDS011;727;48.892;9.544;2022-12-10T15:10:54;29.65;;;17.58;;
1467;SDS011;727;48.892;9.544;2022-12-10T15:13:24;26.45;;;17.60;;
1467;SDS011;727;48.892;9.544;2022-12-10T15:15:55;23.65;;;17.77;;
1467;SDS011;727;48.892;9.544;2022-12-10T15:18:26;25.20;;;15.55;;
1467;SDS011;727;48.892;9.544;2022-12-10T15:21:02;17.63;;;13.98;;
1467;SDS011;727;48.892;9.544;2022-12-10T15:23:32;23.48;;;15.25;;
1467;SDS011;727;48.892;9.544;2022-12-10T15:26:03;21.85;;;13.45;;
1467;SDS011;727;48.892;9.544;2022-12-10T15:28:38;20.30;;;15.13;;
1467;SDS011;727;48.892;9.544;2022-12-10T15:31:11;21.63;;;15.35;;
1467;SDS011;727;48.892;9.544;2022-12-10T15:33:41;17.45;;;14.40;;
1467;SDS011;727;48.892;9.544;2022-12-10T15:36:15;19.00;;;13.77;;
1467;SDS011;727;48.892;9.544;2022-12-10T15:38:45;22.02;;;13.82;;
1467;SDS011;727;48.892;9.544;2022-12-10T15:44:14;22.55;;;14.75;;
1467;SDS011;727;48.892;9.544;2022-12-10T15:46:47;23.50;;;16.80;;